Decoded Metar for YSSY (SYDNEY in AUSTRALIA) (IATA:SYD) | Meteo·Mobile Aviation Weather
aviador You're here:

YSSY Decoded Metar

SYDNEY in AUSTRALIA
Report Time2018-09-20 07:00:00
UTC Time2018-09-20 07:34:49
Flight Rules vfr VFR
Wind140° at 08 kt
W.Decomp.*RWY 16: 6.8 kt HW 4.2 kt LCW
RWY 07: 4.2 kt HW 6.8 kt RCW
W.Rank140° ranks 26
Current wind is below 140° avg. (10.3)
Visibility9999 m
Phenomena:N/A
Clouds:N/A
Expected CloudBase > 4,000 ft AGL from Temp-Dew spread
CeilingNone
Temp15°C (ISA 0)
Dew Point05°C (51% RH)
AAT11.0°C
QNH1020 hPa
Density Alt-105 ft
Elevation10 ft
Report Wrong Elevation
Raw Report
METAR YSSY 200700Z 14008KT CAVOK 15/05 Q1020
NOSIG=

Extra information for YSSY:More info

Metar Taf Metar & Taf Last 4 Metars F.Rules Stats Wind Profile Meteogram Temp Stats Airport Information Weather charts Add Link Nearby VenuesMetar ALERT Operation Metar Decoded Social comments